Westwood Lakes, Florida
Current Conditions -  °F | °C
As of 1:53 AM on Saturday 29 Nov 2014 (Local Time) from KTMB Reporting Station
Broken Clouds Broken Clouds  
Wind Chill: 56°   Ceiling: 4800
Heat Index: 56°   Visibility: 10mi
Dew Point: 50°   Wind: 15mph
Humidity: 80%   Direction: 360°N
Pressure: 30.19"   Gusts: NA
Location:  25.72°N, 80.37°W
Report Text: KTMB 290653Z AUTO 36013KT 10SM BKN048 BKN060 13/10 A3019 RMK AO2 SLP222 T01330100
Loading
Personal Weather Stations






























Interactive Weather Map New forecast layout! Learn more

10-Day Weather Forecast

Advertisements
Track Severe Weather on mobile